sensor_id;sensor_type;location;lat;lon;timestamp;temperature;humidity
4759;DHT22;2393;50.560;12.636;2023-11-21T00:01:38;7.30;99.90
4759;DHT22;2393;50.560;12.636;2023-11-21T00:04:07;7.20;99.90
4759;DHT22;2393;50.560;12.636;2023-11-21T00:06:37;7.30;99.90
4759;DHT22;2393;50.560;12.636;2023-11-21T00:09:05;7.20;99.90
4759;DHT22;2393;50.560;12.636;2023-11-21T00:11:35;7.20;99.90
4759;DHT22;2393;50.560;12.636;2023-11-21T00:14:05;7.20;99.90
4759;DHT22;2393;50.560;12.636;2023-11-21T00:16:33;7.20;99.90
4759;DHT22;2393;50.560;12.636;2023-11-21T00:19:01;7.20;99.90
4759;DHT22;2393;50.560;12.636;2023-11-21T00:21:30;7.20;99.90
4759;DHT22;2393;50.560;12.636;2023-11-21T00:23:59;7.20;99.90
4759;DHT22;2393;50.560;12.636;2023-11-21T00:26:27;7.20;99.90
4759;DHT22;2393;50.560;12.636;2023-11-21T00:29:01;7.20;99.90
4759;DHT22;2393;50.560;12.636;2023-11-21T00:31:29;7.20;99.90
4759;DHT22;2393;50.560;12.636;2023-11-21T00:33:58;7.20;99.90
4759;DHT22;2393;50.560;12.636;2023-11-21T00:36:27;7.20;99.90
4759;DHT22;2393;50.560;12.636;2023-11-21T00:38:55;7.20;99.90
4759;DHT22;2393;50.560;12.636;2023-11-21T00:41:24;7.20;99.90
4759;DHT22;2393;50.560;12.636;2023-11-21T00:43:54;7.20;99.90
4759;DHT22;2393;50.560;12.636;2023-11-21T00:46:22;7.20;99.90
4759;DHT22;2393;50.560;12.636;2023-11-21T00:48:54;7.20;99.90
4759;DHT22;2393;50.560;12.636;2023-11-21T00:51:22;7.20;99.90
4759;DHT22;2393;50.560;12.636;2023-11-21T00:53:51;7.20;99.90
4759;DHT22;2393;50.560;12.636;2023-11-21T00:56:19;7.30;99.90
4759;DHT22;2393;50.560;12.636;2023-11-21T00:58:49;7.30;99.90
4759;DHT22;2393;50.560;12.636;2023-11-21T01:01:19;7.20;99.90
4759;DHT22;2393;50.560;12.636;2023-11-21T01:03:49;7.20;99.90
4759;DHT22;2393;50.560;12.636;2023-11-21T01:06:18;7.30;99.90
4759;DHT22;2393;50.560;12.636;2023-11-21T01:08:47;7.20;99.90
4759;DHT22;2393;50.560;12.636;2023-11-21T01:11:16;7.20;99.90
4759;DHT22;2393;50.560;12.636;2023-11-21T01:13:45;7.20;99.90
4759;DHT22;2393;50.560;12.636;2023-11-21T01:16:15;7.20;99.90
4759;DHT22;2393;50.560;12.636;2023-11-21T01:18:43;7.20;99.90
4759;DHT22;2393;50.560;12.636;2023-11-21T01:21:12;7.20;99.90
4759;DHT22;2393;50.560;12.636;2023-11-21T01:23:40;7.20;99.90
4759;DHT22;2393;50.560;12.636;2023-11-21T01:26:09;7.20;99.90
4759;DHT22;2393;50.560;12.636;2023-11-21T01:28:37;7.20;99.90
4759;DHT22;2393;50.560;12.636;2023-11-21T01:31:06;7.20;99.90
4759;DHT22;2393;50.560;12.636;2023-11-21T01:33:35;7.20;99.90
4759;DHT22;2393;50.560;12.636;2023-11-21T01:36:04;7.20;99.90
4759;DHT22;2393;50.560;12.636;2023-11-21T01:38:33;7.20;99.90
4759;DHT22;2393;50.560;12.636;2023-11-21T01:41:02;7.20;99.90
4759;DHT22;2393;50.560;12.636;2023-11-21T01:43:30;7.20;99.90
4759;DHT22;2393;50.560;12.636;2023-11-21T01:45:59;7.20;99.90
4759;DHT22;2393;50.560;12.636;2023-11-21T01:48:28;7.30;99.90
4759;DHT22;2393;50.560;12.636;2023-11-21T01:50:58;7.20;99.90
4759;DHT22;2393;50.560;12.636;2023-11-21T01:53:26;7.20;99.90
4759;DHT22;2393;50.560;12.636;2023-11-21T01:55:55;7.20;99.90
4759;DHT22;2393;50.560;12.636;2023-11-21T01:58:25;7.20;99.90
4759;DHT22;2393;50.560;12.636;2023-11-21T02:00:54;7.20;99.90
4759;DHT22;2393;50.560;12.636;2023-11-21T02:03:23;7.20;99.90
4759;DHT22;2393;50.560;12.636;2023-11-21T02:05:51;7.20;99.90
4759;DHT22;2393;50.560;12.636;2023-11-21T02:08:21;7.20;99.90
4759;DHT22;2393;50.560;12.636;2023-11-21T02:10:51;7.20;99.90
4759;DHT22;2393;50.560;12.636;2023-11-21T02:13:19;7.20;99.90
4759;DHT22;2393;50.560;12.636;2023-11-21T02:15:48;7.20;99.90
4759;DHT22;2393;50.560;12.636;2023-11-21T02:18:19;7.20;99.90
4759;DHT22;2393;50.560;12.636;2023-11-21T02:20:48;7.20;99.90
4759;DHT22;2393;50.560;12.636;2023-11-21T02:23:19;7.20;99.90
4759;DHT22;2393;50.560;12.636;2023-11-21T02:25:47;7.20;99.90
4759;DHT22;2393;50.560;12.636;2023-11-21T02:28:15;7.20;99.90
4759;DHT22;2393;50.560;12.636;2023-11-21T02:30:52;7.20;99.90
4759;DHT22;2393;50.560;12.636;2023-11-21T02:33:22;7.10;99.90
4759;DHT22;2393;50.560;12.636;2023-11-21T02:35:51;7.00;99.90
4759;DHT22;2393;50.560;12.636;2023-11-21T02:38:23;7.00;99.90
4759;DHT22;2393;50.560;12.636;2023-11-21T02:40:51;7.00;99.90
4759;DHT22;2393;50.560;12.636;2023-11-21T02:43:22;7.00;99.90
4759;DHT22;2393;50.560;12.636;2023-11-21T02:45:50;7.00;99.90
4759;DHT22;2393;50.560;12.636;2023-11-21T02:48:19;7.00;99.90
4759;DHT22;2393;50.560;12.636;2023-11-21T02:50:47;7.00;99.90
4759;DHT22;2393;50.560;12.636;2023-11-21T02:53:15;6.90;99.90
4759;DHT22;2393;50.560;12.636;2023-11-21T02:55:44;7.00;99.90
4759;DHT22;2393;50.560;12.636;2023-11-21T02:58:13;7.00;99.90
4759;DHT22;2393;50.560;12.636;2023-11-21T03:00:42;6.90;99.90
4759;DHT22;2393;50.560;12.636;2023-11-21T03:03:10;6.90;99.90
4759;DHT22;2393;50.560;12.636;2023-11-21T03:05:41;6.90;99.90
4759;DHT22;2393;50.560;12.636;2023-11-21T03:08:10;6.90;99.90
4759;DHT22;2393;50.560;12.636;2023-11-21T03:10:38;6.90;99.90
4759;DHT22;2393;50.560;12.636;2023-11-21T03:13:07;6.90;99.90
4759;DHT22;2393;50.560;12.636;2023-11-21T03:15:36;7.00;99.90
4759;DHT22;2393;50.560;12.636;2023-11-21T03:18:04;6.90;99.90
4759;DHT22;2393;50.560;12.636;2023-11-21T03:20:32;7.00;99.90
4759;DHT22;2393;50.560;12.636;2023-11-21T03:23:01;6.90;99.90
4759;DHT22;2393;50.560;12.636;2023-11-21T03:25:30;7.00;99.90
4759;DHT22;2393;50.560;12.636;2023-11-21T03:27:58;7.00;99.90
4759;DHT22;2393;50.560;12.636;2023-11-21T03:30:28;7.00;99.90
4759;DHT22;2393;50.560;12.636;2023-11-21T03:32:57;7.00;99.90
4759;DHT22;2393;50.560;12.636;2023-11-21T03:35:25;7.00;99.90
4759;DHT22;2393;50.560;12.636;2023-11-21T03:37:54;7.00;99.90
4759;DHT22;2393;50.560;12.636;2023-11-21T03:40:23;7.00;99.90
4759;DHT22;2393;50.560;12.636;2023-11-21T03:42:51;7.00;99.90
4759;DHT22;2393;50.560;12.636;2023-11-21T03:45:20;7.00;99.90
4759;DHT22;2393;50.560;12.636;2023-11-21T03:47:49;7.00;99.90
4759;DHT22;2393;50.560;12.636;2023-11-21T03:50:18;7.00;99.90
4759;DHT22;2393;50.560;12.636;2023-11-21T03:52:46;7.00;99.90
4759;DHT22;2393;50.560;12.636;2023-11-21T03:55:14;7.00;99.90
4759;DHT22;2393;50.560;12.636;2023-11-21T03:57:43;7.00;99.90
4759;DHT22;2393;50.560;12.636;2023-11-21T04:00:13;7.00;99.90
4759;DHT22;2393;50.560;12.636;2023-11-21T04:02:41;7.10;99.90
4759;DHT22;2393;50.560;12.636;2023-11-21T04:05:12;7.10;99.90
4759;DHT22;2393;50.560;12.636;2023-11-21T04:07:41;7.10;99.90
4759;DHT22;2393;50.560;12.636;2023-11-21T04:10:09;7.10;99.90
4759;DHT22;2393;50.560;12.636;2023-11-21T04:12:39;7.00;99.90
4759;DHT22;2393;50.560;12.636;2023-11-21T04:15:09;7.00;99.90
4759;DHT22;2393;50.560;12.636;2023-11-21T04:17:38;7.00;99.90
4759;DHT22;2393;50.560;12.636;2023-11-21T04:20:07;7.00;99.90
4759;DHT22;2393;50.560;12.636;2023-11-21T04:22:39;7.00;99.90
4759;DHT22;2393;50.560;12.636;2023-11-21T04:25:13;7.00;99.90
4759;DHT22;2393;50.560;12.636;2023-11-21T04:27:43;7.00;99.90
4759;DHT22;2393;50.560;12.636;2023-11-21T04:30:13;7.00;99.90
4759;DHT22;2393;50.560;12.636;2023-11-21T04:32:41;7.00;99.90
4759;DHT22;2393;50.560;12.636;2023-11-21T04:35:10;7.00;99.90
4759;DHT22;2393;50.560;12.636;2023-11-21T04:37:40;7.00;99.90
4759;DHT22;2393;50.560;12.636;2023-11-21T04:40:09;7.00;99.90
4759;DHT22;2393;50.560;12.636;2023-11-21T04:42:37;7.00;99.90
4759;DHT22;2393;50.560;12.636;2023-11-21T04:45:06;7.00;99.90
4759;DHT22;2393;50.560;12.636;2023-11-21T04:47:37;7.00;99.90
4759;DHT22;2393;50.560;12.636;2023-11-21T04:50:06;7.10;99.90
4759;DHT22;2393;50.560;12.636;2023-11-21T04:52:34;7.00;99.90
4759;DHT22;2393;50.560;12.636;2023-11-21T04:55:05;7.00;99.90
4759;DHT22;2393;50.560;12.636;2023-11-21T04:57:33;7.10;99.90
4759;DHT22;2393;50.560;12.636;2023-11-21T05:00:02;7.10;99.90
4759;DHT22;2393;50.560;12.636;2023-11-21T05:02:33;7.10;99.90
4759;DHT22;2393;50.560;12.636;2023-11-21T05:05:02;7.10;99.90
4759;DHT22;2393;50.560;12.636;2023-11-21T05:07:33;7.10;99.90
4759;DHT22;2393;50.560;12.636;2023-11-21T05:10:05;7.10;99.90
4759;DHT22;2393;50.560;12.636;2023-11-21T05:12:39;7.10;99.90
4759;DHT22;2393;50.560;12.636;2023-11-21T05:15:09;7.10;99.90
4759;DHT22;2393;50.560;12.636;2023-11-21T05:17:37;7.10;99.90
4759;DHT22;2393;50.560;12.636;2023-11-21T05:20:12;7.10;99.90
4759;DHT22;2393;50.560;12.636;2023-11-21T05:22:41;7.10;99.90
4759;DHT22;2393;50.560;12.636;2023-11-21T05:25:12;7.10;99.90
4759;DHT22;2393;50.560;12.636;2023-11-21T05:27:40;7.10;99.90
4759;DHT22;2393;50.560;12.636;2023-11-21T05:30:09;7.10;99.90
4759;DHT22;2393;50.560;12.636;2023-11-21T05:32:39;7.10;99.90
4759;DHT22;2393;50.560;12.636;2023-11-21T05:35:09;7.20;99.90
4759;DHT22;2393;50.560;12.636;2023-11-21T05:37:43;7.20;99.90
4759;DHT22;2393;50.560;12.636;2023-11-21T05:40:13;7.20;99.90
4759;DHT22;2393;50.560;12.636;2023-11-21T05:42:41;7.20;99.90
4759;DHT22;2393;50.560;12.636;2023-11-21T05:45:10;7.20;99.90
4759;DHT22;2393;50.560;12.636;2023-11-21T05:47:40;7.20;99.90
4759;DHT22;2393;50.560;12.636;2023-11-21T05:50:09;7.20;99.90
4759;DHT22;2393;50.560;12.636;2023-11-21T05:52:43;7.20;99.90
4759;DHT22;2393;50.560;12.636;2023-11-21T05:55:13;7.20;99.90
4759;DHT22;2393;50.560;12.636;2023-11-21T05:57:43;7.20;99.90
4759;DHT22;2393;50.560;12.636;2023-11-21T06:00:13;7.20;99.90
4759;DHT22;2393;50.560;12.636;2023-11-21T06:02:45;7.20;99.90
4759;DHT22;2393;50.560;12.636;2023-11-21T06:05:14;7.20;99.90
4759;DHT22;2393;50.560;12.636;2023-11-21T06:07:42;7.20;99.90
4759;DHT22;2393;50.560;12.636;2023-11-21T06:10:11;7.30;99.90
4759;DHT22;2393;50.560;12.636;2023-11-21T06:12:42;7.20;99.90
4759;DHT22;2393;50.560;12.636;2023-11-21T06:15:12;7.20;99.90
4759;DHT22;2393;50.560;12.636;2023-11-21T06:17:41;7.30;99.90
4759;DHT22;2393;50.560;12.636;2023-11-21T06:20:12;7.20;99.90
4759;DHT22;2393;50.560;12.636;2023-11-21T06:22:42;7.20;99.90
4759;DHT22;2393;50.560;12.636;2023-11-21T06:25:11;7.20;99.90
4759;DHT22;2393;50.560;12.636;2023-11-21T06:27:43;7.20;99.90
4759;DHT22;2393;50.560;12.636;2023-11-21T06:30:12;7.20;99.90
4759;DHT22;2393;50.560;12.636;2023-11-21T06:32:42;7.20;99.90
4759;DHT22;2393;50.560;12.636;2023-11-21T06:35:14;7.20;99.90
4759;DHT22;2393;50.560;12.636;2023-11-21T06:37:44;7.20;99.90
4759;DHT22;2393;50.560;12.636;2023-11-21T06:40:16;7.10;99.90
4759;DHT22;2393;50.560;12.636;2023-11-21T06:42:47;7.10;99.90
4759;DHT22;2393;50.560;12.636;2023-11-21T06:45:16;7.20;99.90
4759;DHT22;2393;50.560;12.636;2023-11-21T06:47:44;7.20;99.90
4759;DHT22;2393;50.560;12.636;2023-11-21T06:50:13;7.20;99.90
4759;DHT22;2393;50.560;12.636;2023-11-21T06:52:42;7.20;99.90
4759;DHT22;2393;50.560;12.636;2023-11-21T06:55:11;7.20;99.90
4759;DHT22;2393;50.560;12.636;2023-11-21T06:57:40;7.20;99.90
4759;DHT22;2393;50.560;12.636;2023-11-21T07:00:10;7.20;99.90
4759;DHT22;2393;50.560;12.636;2023-11-21T07:02:39;7.20;99.90
4759;DHT22;2393;50.560;12.636;2023-11-21T07:05:07;7.20;99.90
4759;DHT22;2393;50.560;12.636;2023-11-21T07:07:36;7.20;99.90
4759;DHT22;2393;50.560;12.636;2023-11-21T07:10:05;7.20;99.90
4759;DHT22;2393;50.560;12.636;2023-11-21T07:12:35;7.20;99.90
4759;DHT22;2393;50.560;12.636;2023-11-21T07:15:04;7.20;99.90
4759;DHT22;2393;50.560;12.636;2023-11-21T07:17:37;7.20;99.90
4759;DHT22;2393;50.560;12.636;2023-11-21T07:20:08;7.20;99.90
4759;DHT22;2393;50.560;12.636;2023-11-21T07:22:38;7.20;99.90
4759;DHT22;2393;50.560;12.636;2023-11-21T07:25:06;7.20;99.90
4759;DHT22;2393;50.560;12.636;2023-11-21T07:27:36;7.20;99.90
4759;DHT22;2393;50.560;12.636;2023-11-21T07:30:05;7.20;99.90
4759;DHT22;2393;50.560;12.636;2023-11-21T07:32:37;7.20;99.90
4759;DHT22;2393;50.560;12.636;2023-11-21T07:35:08;7.20;99.90
4759;DHT22;2393;50.560;12.636;2023-11-21T07:37:36;7.20;99.90
4759;DHT22;2393;50.560;12.636;2023-11-21T07:40:06;7.20;99.90
4759;DHT22;2393;50.560;12.636;2023-11-21T07:42:35;7.20;99.90
4759;DHT22;2393;50.560;12.636;2023-11-21T07:45:05;7.30;99.90
4759;DHT22;2393;50.560;12.636;2023-11-21T07:47:34;7.30;99.90
4759;DHT22;2393;50.560;12.636;2023-11-21T07:50:05;7.30;99.90
4759;DHT22;2393;50.560;12.636;2023-11-21T07:52:34;7.30;99.90
4759;DHT22;2393;50.560;12.636;2023-11-21T07:55:03;7.30;99.90
4759;DHT22;2393;50.560;12.636;2023-11-21T07:57:32;7.30;99.90
4759;DHT22;2393;50.560;12.636;2023-11-21T08:00:00;7.40;99.90
4759;DHT22;2393;50.560;12.636;2023-11-21T08:02:38;7.40;99.90
4759;DHT22;2393;50.560;12.636;2023-11-21T08:05:10;7.50;99.90
4759;DHT22;2393;50.560;12.636;2023-11-21T08:07:50;7.50;99.90
4759;DHT22;2393;50.560;12.636;2023-11-21T08:10:19;7.50;99.90
4759;DHT22;2393;50.560;12.636;2023-11-21T08:12:48;7.50;99.90
4759;DHT22;2393;50.560;12.636;2023-11-21T08:15:17;7.60;99.90
4759;DHT22;2393;50.560;12.636;2023-11-21T08:17:46;7.60;99.90
4759;DHT22;2393;50.560;12.636;2023-11-21T08:20:16;7.60;99.90
4759;DHT22;2393;50.560;12.636;2023-11-21T08:22:45;7.70;99.90
4759;DHT22;2393;50.560;12.636;2023-11-21T08:25:14;7.70;99.90
4759;DHT22;2393;50.560;12.636;2023-11-21T08:27:44;7.80;99.90
4759;DHT22;2393;50.560;12.636;2023-11-21T08:30:12;7.90;99.90
4759;DHT22;2393;50.560;12.636;2023-11-21T08:32:41;7.90;99.90
4759;DHT22;2393;50.560;12.636;2023-11-21T08:35:10;7.90;99.90
4759;DHT22;2393;50.560;12.636;2023-11-21T08:37:41;7.90;99.90
4759;DHT22;2393;50.560;12.636;2023-11-21T08:40:10;7.90;99.90
4759;DHT22;2393;50.560;12.636;2023-11-21T08:42:43;7.90;99.90
4759;DHT22;2393;50.560;12.636;2023-11-21T08:45:12;7.90;99.90
4759;DHT22;2393;50.560;12.636;2023-11-21T08:47:40;7.90;99.90
4759;DHT22;2393;50.560;12.636;2023-11-21T08:50:11;7.80;99.90
4759;DHT22;2393;50.560;12.636;2023-11-21T08:52:42;7.80;99.90
4759;DHT22;2393;50.560;12.636;2023-11-21T08:55:13;7.70;99.90
4759;DHT22;2393;50.560;12.636;2023-11-21T08:57:43;7.70;99.90
4759;DHT22;2393;50.560;12.636;2023-11-21T09:00:12;7.70;99.90
4759;DHT22;2393;50.560;12.636;2023-11-21T09:02:44;7.70;99.90
4759;DHT22;2393;50.560;12.636;2023-11-21T09:05:13;7.70;99.90
4759;DHT22;2393;50.560;12.636;2023-11-21T09:07:44;7.70;99.90
4759;DHT22;2393;50.560;12.636;2023-11-21T09:10:13;7.70;99.90
4759;DHT22;2393;50.560;12.636;2023-11-21T09:12:41;7.60;99.90
4759;DHT22;2393;50.560;12.636;2023-11-21T09:15:10;7.60;99.90
4759;DHT22;2393;50.560;12.636;2023-11-21T09:17:38;7.60;99.90
4759;DHT22;2393;50.560;12.636;2023-11-21T09:20:08;7.60;99.90
4759;DHT22;2393;50.560;12.636;2023-11-21T09:22:37;7.60;99.90
4759;DHT22;2393;50.560;12.636;2023-11-21T09:25:07;7.50;99.90
4759;DHT22;2393;50.560;12.636;2023-11-21T09:27:36;7.50;99.90
4759;DHT22;2393;50.560;12.636;2023-11-21T09:30:05;7.50;99.90
4759;DHT22;2393;50.560;12.636;2023-11-21T09:32:36;7.50;99.90
4759;DHT22;2393;50.560;12.636;2023-11-21T09:35:06;7.50;99.90
4759;DHT22;2393;50.560;12.636;2023-11-21T09:37:35;7.40;99.90
4759;DHT22;2393;50.560;12.636;2023-11-21T09:40:10;7.50;99.90
4759;DHT22;2393;50.560;12.636;2023-11-21T09:42:42;7.50;99.90
4759;DHT22;2393;50.560;12.636;2023-11-21T09:45:17;7.50;99.90
4759;DHT22;2393;50.560;12.636;2023-11-21T09:47:47;7.40;99.90
4759;DHT22;2393;50.560;12.636;2023-11-21T09:50:17;7.40;99.90
4759;DHT22;2393;50.560;12.636;2023-11-21T09:52:57;7.40;99.90
4759;DHT22;2393;50.560;12.636;2023-11-21T09:55:29;7.40;99.90
4759;DHT22;2393;50.560;12.636;2023-11-21T09:57:59;7.40;99.90
4759;DHT22;2393;50.560;12.636;2023-11-21T10:00:28;7.40;99.90
4759;DHT22;2393;50.560;12.636;2023-11-21T10:03:00;7.40;99.90
4759;DHT22;2393;50.560;12.636;2023-11-21T10:05:29;7.40;99.90
4759;DHT22;2393;50.560;12.636;2023-11-21T10:08:01;7.40;99.90
4759;DHT22;2393;50.560;12.636;2023-11-21T10:10:32;7.40;99.90
4759;DHT22;2393;50.560;12.636;2023-11-21T10:13:02;7.40;99.90
4759;DHT22;2393;50.560;12.636;2023-11-21T10:15:34;7.30;99.90
4759;DHT22;2393;50.560;12.636;2023-11-21T10:18:03;7.30;99.90
4759;DHT22;2393;50.560;12.636;2023-11-21T10:20:33;7.30;99.90
4759;DHT22;2393;50.560;12.636;2023-11-21T10:23:01;7.30;99.90
4759;DHT22;2393;50.560;12.636;2023-11-21T10:25:32;7.30;99.90
4759;DHT22;2393;50.560;12.636;2023-11-21T10:28:01;7.30;99.90
4759;DHT22;2393;50.560;12.636;2023-11-21T10:30:36;7.30;99.90
4759;DHT22;2393;50.560;12.636;2023-11-21T10:33:05;7.40;99.90
4759;DHT22;2393;50.560;12.636;2023-11-21T10:35:43;7.40;99.90
4759;DHT22;2393;50.560;12.636;2023-11-21T10:38:15;7.50;99.90
4759;DHT22;2393;50.560;12.636;2023-11-21T10:40:45;7.60;99.90
4759;DHT22;2393;50.560;12.636;2023-11-21T10:43:14;7.70;99.90
4759;DHT22;2393;50.560;12.636;2023-11-21T10:45:42;7.70;99.90
4759;DHT22;2393;50.560;12.636;2023-11-21T10:48:13;7.70;99.90
4759;DHT22;2393;50.560;12.636;2023-11-21T10:50:44;7.80;99.90
4759;DHT22;2393;50.560;12.636;2023-11-21T10:53:13;7.80;99.90
4759;DHT22;2393;50.560;12.636;2023-11-21T10:55:42;7.70;99.90
4759;DHT22;2393;50.560;12.636;2023-11-21T10:58:14;7.70;99.90
4759;DHT22;2393;50.560;12.636;2023-11-21T11:00:43;7.70;99.90
4759;DHT22;2393;50.560;12.636;2023-11-21T11:03:13;7.70;99.90
4759;DHT22;2393;50.560;12.636;2023-11-21T11:05:44;7.70;99.90
4759;DHT22;2393;50.560;12.636;2023-11-21T11:08:21;7.70;99.90
4759;DHT22;2393;50.560;12.636;2023-11-21T11:10:55;7.70;99.90
4759;DHT22;2393;50.560;12.636;2023-11-21T11:13:26;7.60;99.90
4759;DHT22;2393;50.560;12.636;2023-11-21T11:15:58;7.60;99.90
4759;DHT22;2393;50.560;12.636;2023-11-21T11:18:29;7.60;99.90
4759;DHT22;2393;50.560;12.636;2023-11-21T11:21:15;7.70;99.90
4759;DHT22;2393;50.560;12.636;2023-11-21T11:23:59;7.70;99.90
4759;DHT22;2393;50.560;12.636;2023-11-21T11:26:42;7.60;99.90
4759;DHT22;2393;50.560;12.636;2023-11-21T11:29:24;7.60;99.90
4759;DHT22;2393;50.560;12.636;2023-11-21T11:32:05;7.60;99.90
4759;DHT22;2393;50.560;12.636;2023-11-21T11:34:41;7.50;99.90
4759;DHT22;2393;50.560;12.636;2023-11-21T11:37:10;7.50;99.90
4759;DHT22;2393;50.560;12.636;2023-11-21T11:39:41;7.50;99.90
4759;DHT22;2393;50.560;12.636;2023-11-21T11:42:13;7.30;99.90
4759;DHT22;2393;50.560;12.636;2023-11-21T11:44:50;7.30;99.90
4759;DHT22;2393;50.560;12.636;2023-11-21T11:47:22;7.20;99.90
4759;DHT22;2393;50.560;12.636;2023-11-21T11:49:58;7.20;99.90
4759;DHT22;2393;50.560;12.636;2023-11-21T11:52:39;7.20;99.90
4759;DHT22;2393;50.560;12.636;2023-11-21T11:55:09;7.20;99.90
4759;DHT22;2393;50.560;12.636;2023-11-21T11:57:38;7.20;99.90
4759;DHT22;2393;50.560;12.636;2023-11-21T12:00:15;7.20;99.90
4759;DHT22;2393;50.560;12.636;2023-11-21T12:02:47;7.20;99.90
4759;DHT22;2393;50.560;12.636;2023-11-21T12:05:16;7.20;99.90
4759;DHT22;2393;50.560;12.636;2023-11-21T12:07:48;7.30;99.90
4759;DHT22;2393;50.560;12.636;2023-11-21T12:10:17;7.30;99.90
4759;DHT22;2393;50.560;12.636;2023-11-21T12:12:47;7.30;99.90
4759;DHT22;2393;50.560;12.636;2023-11-21T12:15:17;7.30;99.90
4759;DHT22;2393;50.560;12.636;2023-11-21T12:17:46;7.30;99.90
4759;DHT22;2393;50.560;12.636;2023-11-21T12:20:18;7.30;99.90
4759;DHT22;2393;50.560;12.636;2023-11-21T12:22:48;7.30;99.90
4759;DHT22;2393;50.560;12.636;2023-11-21T12:25:17;7.30;99.90
4759;DHT22;2393;50.560;12.636;2023-11-21T12:27:46;7.30;99.90
4759;DHT22;2393;50.560;12.636;2023-11-21T12:30:19;7.40;99.90
4759;DHT22;2393;50.560;12.636;2023-11-21T12:32:50;7.40;99.90
4759;DHT22;2393;50.560;12.636;2023-11-21T12:35:20;7.40;99.90
4759;DHT22;2393;50.560;12.636;2023-11-21T12:37:49;7.40;99.90
4759;DHT22;2393;50.560;12.636;2023-11-21T12:40:18;7.40;99.90
4759;DHT22;2393;50.560;12.636;2023-11-21T12:42:47;7.40;99.90
4759;DHT22;2393;50.560;12.636;2023-11-21T12:45:22;7.40;99.90
4759;DHT22;2393;50.560;12.636;2023-11-21T12:47:55;7.40;99.90
4759;DHT22;2393;50.560;12.636;2023-11-21T12:50:25;7.30;99.90
4759;DHT22;2393;50.560;12.636;2023-11-21T12:52:59;7.30;99.90
4759;DHT22;2393;50.560;12.636;2023-11-21T12:55:30;7.30;99.90
4759;DHT22;2393;50.560;12.636;2023-11-21T12:58:01;7.30;99.90
4759;DHT22;2393;50.560;12.636;2023-11-21T13:00:38;7.30;99.90
4759;DHT22;2393;50.560;12.636;2023-11-21T13:03:10;7.30;99.90
4759;DHT22;2393;50.560;12.636;2023-11-21T13:05:40;7.30;99.90
4759;DHT22;2393;50.560;12.636;2023-11-21T13:08:14;7.30;99.90
4759;DHT22;2393;50.560;12.636;2023-11-21T13:10:49;7.20;99.90
4759;DHT22;2393;50.560;12.636;2023-11-21T13:13:18;7.20;99.90
4759;DHT22;2393;50.560;12.636;2023-11-21T13:15:53;7.20;99.90
4759;DHT22;2393;50.560;12.636;2023-11-21T13:18:23;7.20;99.90
4759;DHT22;2393;50.560;12.636;2023-11-21T13:20:54;7.20;99.90
4759;DHT22;2393;50.560;12.636;2023-11-21T13:23:23;7.30;99.90
4759;DHT22;2393;50.560;12.636;2023-11-21T13:25:52;7.20;99.90
4759;DHT22;2393;50.560;12.636;2023-11-21T13:28:30;7.20;99.90
4759;DHT22;2393;50.560;12.636;2023-11-21T13:31:02;7.20;99.90
4759;DHT22;2393;50.560;12.636;2023-11-21T13:33:38;7.20;99.90
4759;DHT22;2393;50.560;12.636;2023-11-21T13:36:09;7.20;99.90
4759;DHT22;2393;50.560;12.636;2023-11-21T13:38:40;7.20;99.90
4759;DHT22;2393;50.560;12.636;2023-11-21T13:41:11;7.10;99.90
4759;DHT22;2393;50.560;12.636;2023-11-21T13:43:41;7.10;99.90
4759;DHT22;2393;50.560;12.636;2023-11-21T13:46:14;7.00;99.90
4759;DHT22;2393;50.560;12.636;2023-11-21T13:48:48;7.00;99.90
4759;DHT22;2393;50.560;12.636;2023-11-21T13:51:18;7.00;99.90
4759;DHT22;2393;50.560;12.636;2023-11-21T13:53:48;7.00;99.90
4759;DHT22;2393;50.560;12.636;2023-11-21T13:56:19;7.00;99.90
4759;DHT22;2393;50.560;12.636;2023-11-21T13:58:51;7.00;99.90
4759;DHT22;2393;50.560;12.636;2023-11-21T14:01:23;7.00;99.90
4759;DHT22;2393;50.560;12.636;2023-11-21T14:04:14;6.90;99.90
4759;DHT22;2393;50.560;12.636;2023-11-21T14:06:58;6.90;99.90
4759;DHT22;2393;50.560;12.636;2023-11-21T14:09:37;6.90;99.90
4759;DHT22;2393;50.560;12.636;2023-11-21T14:12:11;6.90;99.90
4759;DHT22;2393;50.560;12.636;2023-11-21T14:14:41;6.80;99.90
4759;DHT22;2393;50.560;12.636;2023-11-21T14:17:11;6.80;99.90
4759;DHT22;2393;50.560;12.636;2023-11-21T14:19:39;6.70;99.90
4759;DHT22;2393;50.560;12.636;2023-11-21T14:22:11;6.60;99.90
4759;DHT22;2393;50.560;12.636;2023-11-21T14:24:40;6.60;99.90
4759;DHT22;2393;50.560;12.636;2023-11-21T14:27:10;6.60;99.90
4759;DHT22;2393;50.560;12.636;2023-11-21T14:29:38;6.60;99.90
4759;DHT22;2393;50.560;12.636;2023-11-21T14:32:11;6.50;99.90
4759;DHT22;2393;50.560;12.636;2023-11-21T14:34:41;6.50;99.90
4759;DHT22;2393;50.560;12.636;2023-11-21T14:37:12;6.40;99.90
4759;DHT22;2393;50.560;12.636;2023-11-21T14:39:41;6.40;99.90
4759;DHT22;2393;50.560;12.636;2023-11-21T14:42:12;6.40;99.90
4759;DHT22;2393;50.560;12.636;2023-11-21T14:44:42;6.40;99.90
4759;DHT22;2393;50.560;12.636;2023-11-21T14:47:11;6.30;99.90
4759;DHT22;2393;50.560;12.636;2023-11-21T14:49:43;6.30;99.90
4759;DHT22;2393;50.560;12.636;2023-11-21T14:52:23;6.30;99.90
4759;DHT22;2393;50.560;12.636;2023-11-21T14:55:00;6.20;99.90
4759;DHT22;2393;50.560;12.636;2023-11-21T14:57:48;6.20;99.90
4759;DHT22;2393;50.560;12.636;2023-11-21T15:00:19;6.20;99.90
4759;DHT22;2393;50.560;12.636;2023-11-21T15:03:12;6.20;99.90
4759;DHT22;2393;50.560;12.636;2023-11-21T15:06:02;6.20;99.90
4759;DHT22;2393;50.560;12.636;2023-11-21T15:08:49;6.20;99.90
4759;DHT22;2393;50.560;12.636;2023-11-21T15:11:24;6.10;99.90
4759;DHT22;2393;50.560;12.636;2023-11-21T15:13:57;6.10;99.90
4759;DHT22;2393;50.560;12.636;2023-11-21T15:16:26;6.10;99.90
4759;DHT22;2393;50.560;12.636;2023-11-21T15:18:55;6.10;99.90
4759;DHT22;2393;50.560;12.636;2023-11-21T15:21:23;6.10;99.90
4759;DHT22;2393;50.560;12.636;2023-11-21T15:23:52;6.00;99.90
4759;DHT22;2393;50.560;12.636;2023-11-21T15:26:20;6.00;99.90
4759;DHT22;2393;50.560;12.636;2023-11-21T15:28:49;6.00;99.90
4759;DHT22;2393;50.560;12.636;2023-11-21T15:31:17;6.00;99.90
4759;DHT22;2393;50.560;12.636;2023-11-21T15:33:50;5.90;99.90
4759;DHT22;2393;50.560;12.636;2023-11-21T15:36:21;5.80;99.90
4759;DHT22;2393;50.560;12.636;2023-11-21T15:38:49;5.80;99.90
4759;DHT22;2393;50.560;12.636;2023-11-21T15:41:17;5.80;99.90
4759;DHT22;2393;50.560;12.636;2023-11-21T15:43:46;5.70;99.90
4759;DHT22;2393;50.560;12.636;2023-11-21T15:46:15;5.70;99.90
4759;DHT22;2393;50.560;12.636;2023-11-21T15:48:44;5.60;99.90
4759;DHT22;2393;50.560;12.636;2023-11-21T15:51:21;5.50;99.90
4759;DHT22;2393;50.560;12.636;2023-11-21T15:53:50;5.30;99.90
4759;DHT22;2393;50.560;12.636;2023-11-21T15:56:19;5.10;99.90
4759;DHT22;2393;50.560;12.636;2023-11-21T15:58:47;5.10;99.90
4759;DHT22;2393;50.560;12.636;2023-11-21T16:01:17;5.00;99.90
4759;DHT22;2393;50.560;12.636;2023-11-21T16:03:46;4.90;99.90
4759;DHT22;2393;50.560;12.636;2023-11-21T16:06:15;4.80;99.90
4759;DHT22;2393;50.560;12.636;2023-11-21T16:08:45;4.70;99.90
4759;DHT22;2393;50.560;12.636;2023-11-21T16:11:13;4.70;99.90
4759;DHT22;2393;50.560;12.636;2023-11-21T16:13:42;4.70;99.90
4759;DHT22;2393;50.560;12.636;2023-11-21T16:16:10;4.70;99.90
4759;DHT22;2393;50.560;12.636;2023-11-21T16:18:38;4.70;99.90
4759;DHT22;2393;50.560;12.636;2023-11-21T16:21:06;4.70;99.90
4759;DHT22;2393;50.560;12.636;2023-11-21T16:23:37;4.60;99.90